Time;durP1;ratioP1;P1;durP2;ratioP2;P2;SDS_P1;SDS_P2;PMS_P1;PMS_P2;Temp;Humidity;BMP_temperature;BMP_pressure;BME280_temperature;BME280_humidity;BME280_pressure;Samples;Min_cycle;Max_cycle;Signal;HPM_P1;HPM_P2
2022/05/20 00:00:08;;;;;;;5.47;1.60;;;22.70;63.10;;;;;;5051841;28;20488;-56
2022/05/20 00:02:34;;;;;;;3.72;1.52;;;22.70;63.10;;;;;;5052698;28;20103;-56
2022/05/20 00:05:02;;;;;;;4.32;1.67;;;22.70;63.10;;;;;;5051508;28;20040;-56
2022/05/20 00:07:27;;;;;;;;;;;22.70;63.10;;;;;;5052027;28;20439;-56
2022/05/20 00:09:53;;;;;;;4.80;1.50;;;22.70;63.10;;;;;;5052528;28;20418;-56
2022/05/20 00:12:19;;;;;;;4.00;1.60;;;22.60;63.10;;;;;;5052469;28;20049;-56
2022/05/20 00:14:45;;;;;;;3.88;1.50;;;22.70;63.10;;;;;;5051634;28;20044;-57
2022/05/20 00:17:10;;;;;;;3.38;1.40;;;22.60;63.00;;;;;;5052314;28;20538;-56
2022/05/20 00:19:36;;;;;;;4.07;1.48;;;22.60;63.00;;;;;;5052743;28;20044;-56
2022/05/20 00:22:01;;;;;;;3.95;1.33;;;22.60;63.00;;;;;;5051467;28;20045;-56
2022/05/20 00:24:27;;;;;;;3.05;1.40;;;22.60;63.00;;;;;;5052587;28;20044;-56
2022/05/20 00:26:53;;;;;;;2.65;1.30;;;22.60;63.00;;;;;;5051850;28;20120;-56
2022/05/20 00:29:19;;;;;;;3.30;1.30;;;22.60;63.00;;;;;;5051789;28;20120;-56
2022/05/20 00:31:44;;;;;;;4.35;1.85;;;22.60;63.00;;;;;;5051974;28;20045;-56
2022/05/20 00:34:10;;;;;;;3.65;1.45;;;22.70;63.00;;;;;;5052500;28;20048;-56
2022/05/20 00:36:35;;;;;;;3.90;1.40;;;22.60;63.00;;;;;;5051556;28;20045;-56
2022/05/20 00:39:01;;;;;;;3.03;1.38;;;22.60;63.00;;;;;;5050736;28;20048;-56
2022/05/20 00:41:26;;;;;;;4.00;1.50;;;22.60;63.00;;;;;;5052232;28;20091;-56
2022/05/20 00:43:52;;;;;;;3.55;1.40;;;22.60;62.90;;;;;;5051156;28;20369;-56
2022/05/20 00:46:22;;;;;;;2.70;1.35;;;22.60;62.90;;;;;;5052359;28;20479;-56
2022/05/20 00:48:50;;;;;;;3.15;1.50;;;22.60;62.90;;;;;;5051225;28;20049;-56
2022/05/20 00:51:22;;;;;;;4.03;1.38;;;22.60;62.90;;;;;;5067601;28;20071;-56
2022/05/20 00:54:06;;;;;;;2.33;1.40;;;22.60;62.90;;;;;;5051725;28;20049;-56
2022/05/20 00:56:39;;;;;;;3.17;1.27;;;22.60;62.90;;;;;;5067058;28;20041;-56
2022/05/20 00:59:05;;;;;;;3.30;1.20;;;22.60;62.90;;;;;;5051968;28;20422;-57
2022/05/20 01:01:30;;;;;;;3.38;1.58;;;22.50;62.90;;;;;;5067570;28;20048;-56
2022/05/20 01:03:56;;;;;;;3.08;1.15;;;22.50;62.90;;;;;;5051254;28;20052;-57
2022/05/20 01:06:21;;;;;;;3.60;1.20;;;22.50;62.80;;;;;;5067366;28;20052;-56
2022/05/20 01:08:47;;;;;;;2.80;1.23;;;22.50;62.80;;;;;;5051862;28;20045;-57
2022/05/20 01:11:12;;;;;;;2.60;1.05;;;22.50;62.80;;;;;;5051124;28;20055;-56
2022/05/20 01:13:38;;;;;;;2.33;1.13;;;22.50;62.80;;;;;;5052214;28;20508;-56
2022/05/20 01:16:07;;;;;;;3.22;1.10;;;22.50;62.80;;;;;;5053949;28;20047;-57
2022/05/20 01:18:34;;;;;;;2.17;1.17;;;22.50;62.80;;;;;;5070157;28;20056;-56
2022/05/20 01:20:59;;;;;;;2.72;1.27;;;22.50;62.90;;;;;;5055274;28;20057;-56
2022/05/20 01:23:26;;;;;;;3.25;1.20;;;22.50;62.90;;;;;;5055950;28;20091;-56
2022/05/20 01:25:53;;;;;;;2.38;1.35;;;22.50;62.90;;;;;;5054510;28;20469;-56
2022/05/20 01:28:20;;;;;;;3.35;1.20;;;22.50;62.80;;;;;;5055736;28;20045;-57
2022/05/20 01:30:47;;;;;;;2.33;0.90;;;22.50;63.10;;;;;;5055292;28;20052;-56
2022/05/20 01:33:27;;;;;;;3.75;1.17;;;22.50;62.80;;;;;;5070310;28;20059;-56
2022/05/20 01:35:53;;;;;;;2.42;1.23;;;22.50;62.80;;;;;;5068911;28;20059;-56
2022/05/20 01:38:19;;;;;;;3.17;1.27;;;22.50;62.80;;;;;;5053408;28;20087;-56
2022/05/20 01:40:48;;;;;;;2.72;1.20;;;22.50;62.80;;;;;;5054999;28;20052;-56
2022/05/20 01:43:44;;;;;;;2.92;1.30;;;22.40;62.70;;;;;;5055076;28;20073;-56
2022/05/20 01:46:15;;;;;;;2.42;1.00;;;22.40;62.70;;;;;;5054548;28;20067;-56
2022/05/20 01:48:55;;;;;;;1.95;1.10;;;22.40;62.70;;;;;;5053653;28;20448;-57
2022/05/20 01:51:22;;;;;;;2.75;1.00;;;22.40;62.70;;;;;;5055147;28;20055;-56
2022/05/20 01:53:54;;;;;;;3.53;1.10;;;22.40;62.70;;;;;;5052843;28;20051;-56
2022/05/20 01:56:22;;;;;;;2.33;1.20;;;22.40;62.70;;;;;;5054009;28;20053;-56
2022/05/20 01:58:56;;;;;;;1.95;0.90;;;22.40;62.70;;;;;;5053719;28;20051;-57
2022/05/20 02:01:26;;;;;;;1.85;0.82;;;22.40;62.70;;;;;;5053022;28;20045;-56
2022/05/20 02:03:56;;;;;;;3.42;1.23;;;22.40;62.70;;;;;;5053346;28;20041;-56
2022/05/20 02:06:25;;;;;;;2.03;1.00;;;22.40;62.70;;;;;;5052142;28;20045;-56
2022/05/20 02:09:02;;;;;;;3.53;1.10;;;22.40;62.70;;;;;;5053422;28;20045;-56
2022/05/20 02:11:31;;;;;;;2.70;1.13;;;22.40;62.70;;;;;;5053800;28;20052;-56
2022/05/20 02:14:02;;;;;;;1.35;0.90;;;22.40;62.70;;;;;;5052743;28;20037;-56
2022/05/20 02:16:32;;;;;;;1.85;1.10;;;22.40;62.70;;;;;;5053807;28;20049;-57
2022/05/20 02:19:13;;;;;;;1.85;1.08;;;22.40;62.70;;;;;;5053565;28;20063;-56
2022/05/20 02:21:40;;;;;;;2.10;1.00;;;22.40;62.70;;;;;;5053683;28;20136;-56
2022/05/20 02:24:09;;;;;;;2.40;1.13;;;22.40;62.70;;;;;;5053280;28;20423;-56
2022/05/20 02:26:42;;;;;;;2.10;0.95;;;22.40;62.70;;;;;;5053058;28;20053;-56
2022/05/20 02:29:11;;;;;;;1.10;0.80;;;22.40;62.70;;;;;;5052182;28;20045;-56
2022/05/20 02:31:42;;;;;;;2.17;1.08;;;22.40;62.70;;;;;;5053285;28;20068;-56
2022/05/20 02:34:07;;;;;;;2.10;0.90;;;22.40;62.60;;;;;;5053377;28;20045;-56
2022/05/20 02:36:34;;;;;;;1.80;0.95;;;22.40;62.60;;;;;;5053680;28;20063;-56
2022/05/20 02:39:00;;;;;;;1.42;0.90;;;22.40;62.70;;;;;;5054252;28;20060;-56
2022/05/20 02:41:26;;;;;;;1.73;0.93;;;22.40;62.70;;;;;;5053351;28;20440;-56
2022/05/20 02:43:51;;;;;;;2.45;0.80;;;22.40;62.60;;;;;;5053862;28;20041;-56
2022/05/20 02:46:17;;;;;;;2.15;1.02;;;22.40;62.70;;;;;;5054259;28;20049;-56
2022/05/20 02:48:42;;;;;;;1.60;0.90;;;22.30;62.60;;;;;;5053298;28;20120;-56
2022/05/20 02:51:08;;;;;;;2.58;0.90;;;22.40;62.70;;;;;;5054100;28;20072;-56
2022/05/20 02:53:33;;;;;;;1.20;1.00;;;22.30;62.60;;;;;;5054289;28;20189;-56
2022/05/20 02:56:00;;;;;;;1.95;0.82;;;22.40;62.70;;;;;;5051894;28;20128;-56
2022/05/20 03:04:09;;;;;;;;;;;22.30;62.60;;;;;;5053390;28;20049;-56
2022/05/20 03:06:48;;;;;;;1.27;0.80;;;22.30;62.60;;;;;;5053924;28;19921;-56
2022/05/20 03:09:14;;;;;;;2.05;0.70;;;22.30;62.70;;;;;;5053847;28;20045;-56
2022/05/20 03:11:40;;;;;;;3.13;0.85;;;22.30;62.70;;;;;;5052899;28;20041;-56
2022/05/20 03:14:06;;;;;;;2.15;0.80;;;22.30;62.70;;;;;;5052814;28;20124;-56
2022/05/20 03:16:32;;;;;;;1.77;0.90;;;22.30;62.70;;;;;;5052923;28;20036;-56
2022/05/20 03:18:58;;;;;;;1.27;0.65;;;22.30;62.70;;;;;;5053203;28;20091;-57
2022/05/20 03:21:24;;;;;;;1.85;1.00;;;22.20;62.60;;;;;;5053553;28;20124;-56
2022/05/20 03:23:49;;;;;;;1.85;0.80;;;22.30;63.30;;;;;;5052268;28;20052;-57
2022/05/20 03:26:15;;;;;;;2.03;0.82;;;22.20;62.60;;;;;;5053414;28;20131;-56
2022/05/20 03:28:43;;;;;;;2.13;0.90;;;22.20;62.60;;;;;;5053210;28;20037;-57
2022/05/20 03:31:09;;;;;;;1.48;0.80;;;22.20;62.60;;;;;;5052591;28;20099;-56
2022/05/20 03:33:35;;;;;;;2.22;1.13;;;22.20;62.60;;;;;;5053359;28;20045;-56
2022/05/20 03:36:01;;;;;;;1.58;1.02;;;22.20;62.60;;;;;;5052982;28;20037;-56
2022/05/20 03:38:26;;;;;;;1.40;0.75;;;22.20;62.60;;;;;;5052060;28;20048;-56
2022/05/20 03:40:52;;;;;;;1.52;0.70;;;22.20;62.60;;;;;;5052936;28;20451;-56
2022/05/20 03:43:17;;;;;;;2.30;0.88;;;22.20;62.60;;;;;;5052881;28;20432;-57
2022/05/20 03:45:43;;;;;;;2.10;0.80;;;22.20;62.60;;;;;;5052273;28;20076;-56
2022/05/20 03:48:09;;;;;;;1.42;0.80;;;22.20;62.60;;;;;;5053059;28;20393;-56
2022/05/20 03:50:35;;;;;;;1.98;0.80;;;22.20;62.60;;;;;;5053143;28;20115;-56
2022/05/20 03:53:00;;;;;;;1.85;0.85;;;22.20;62.70;;;;;;5051834;28;20121;-56
2022/05/20 03:55:26;;;;;;;2.00;0.93;;;22.20;62.70;;;;;;5052931;28;20416;-57
2022/05/20 03:57:52;;;;;;;2.05;0.90;;;22.20;62.70;;;;;;5052485;28;20090;-56
2022/05/20 04:00:18;;;;;;;1.25;0.70;;;22.20;62.70;;;;;;5052174;28;20041;-56
2022/05/20 04:02:43;;;;;;;2.25;0.80;;;22.20;62.70;;;;;;5052125;28;20055;-57
2022/05/20 04:05:09;;;;;;;2.15;0.80;;;22.20;62.70;;;;;;5052221;28;20056;-57
2022/05/20 04:07:34;;;;;;;1.42;0.80;;;22.20;62.70;;;;;;5051454;28;20072;-56
2022/05/20 04:10:00;;;;;;;1.63;0.65;;;22.20;62.70;;;;;;5052317;28;20033;-56
2022/05/20 04:12:31;;;;;;;1.45;0.73;;;22.20;62.70;;;;;;5052590;28;20041;-56
2022/05/20 04:14:57;;;;;;;1.05;0.70;;;22.10;62.60;;;;;;5050465;28;20094;-56
2022/05/20 04:17:23;;;;;;;2.38;1.00;;;22.10;62.60;;;;;;5052491;28;20496;-56
2022/05/20 04:19:48;;;;;;;1.80;0.80;;;22.10;62.60;;;;;;5051694;28;20231;-56
2022/05/20 04:22:16;;;;;;;1.02;0.80;;;22.10;62.60;;;;;;5052061;28;20045;-57
2022/05/20 04:24:41;;;;;;;1.70;0.80;;;22.10;62.70;;;;;;5052315;28;20033;-56
2022/05/20 04:27:07;;;;;;;1.20;0.63;;;22.10;62.70;;;;;;5051483;28;21211;-56
2022/05/20 04:29:34;;;;;;;1.10;0.70;;;22.10;62.70;;;;;;5052300;28;20113;-56
2022/05/20 04:31:59;;;;;;;1.77;0.93;;;22.10;62.70;;;;;;5052177;28;20080;-56
2022/05/20 04:34:25;;;;;;;2.38;0.70;;;22.10;62.60;;;;;;5051450;28;20076;-56
2022/05/20 04:36:51;;;;;;;2.40;0.95;;;22.10;62.60;;;;;;5051973;28;20037;-56
2022/05/20 04:39:17;;;;;;;1.55;0.63;;;22.10;62.60;;;;;;5052213;28;20446;-56
2022/05/20 04:47:24;;;;;;;2.65;0.70;;;22.10;62.70;;;;;;5051962;28;20484;-56
2022/05/20 04:49:50;;;;;;;1.80;0.70;;;22.10;62.70;;;;;;5050375;28;20106;-56
2022/05/20 04:52:15;;;;;;;1.90;0.70;;;22.10;62.70;;;;;;5055988;28;20485;-56
2022/05/20 04:54:50;;;;;;;1.15;0.90;;;22.10;62.70;;;;;;5056046;28;20457;-57
2022/05/20 04:57:24;;;;;;;1.83;0.80;;;22.10;62.70;;;;;;5055459;28;20040;-56
2022/05/20 04:59:51;;;;;;;1.73;0.82;;;22.10;62.70;;;;;;5055913;28;20049;-57
2022/05/20 05:02:17;;;;;;;1.13;0.70;;;22.10;62.70;;;;;;5055537;28;20122;-56
2022/05/20 05:04:43;;;;;;;1.60;0.77;;;22.10;62.70;;;;;;5055652;28;20446;-56
2022/05/20 05:07:09;;;;;;;0.55;0.50;;;22.10;62.70;;;;;;5056110;28;20052;-57
2022/05/20 05:09:36;;;;;;;1.95;0.90;;;22.10;62.70;;;;;;5055232;28;20040;-57
2022/05/20 05:12:03;;;;;;;2.13;0.57;;;22.00;62.60;;;;;;5055755;28;20045;-57
2022/05/20 05:14:29;;;;;;;3.45;0.98;;;22.10;62.70;;;;;;5056001;28;20052;-56
2022/05/20 05:16:54;;;;;;;1.58;0.70;;;22.00;62.70;;;;;;5054798;28;20049;-56
2022/05/20 05:19:20;;;;;;;1.30;0.70;;;22.10;62.70;;;;;;5055965;28;20033;-56
2022/05/20 05:21:45;;;;;;;1.85;0.68;;;22.00;62.70;;;;;;5055462;28;20138;-56
2022/05/20 05:24:11;;;;;;;2.53;0.75;;;22.10;62.70;;;;;;5055272;28;20132;-56
2022/05/20 05:26:36;;;;;;;2.08;0.80;;;22.00;62.60;;;;;;5055479;28;20134;-57
2022/05/20 05:29:03;;;;;;;2.15;0.80;;;22.00;62.70;;;;;;5055221;28;20075;-56
2022/05/20 05:31:29;;;;;;;1.25;0.50;;;22.00;62.70;;;;;;5054908;28;20099;-56
2022/05/20 05:33:54;;;;;;;1.45;0.60;;;22.10;62.70;;;;;;5055287;28;20041;-56
2022/05/20 05:36:20;;;;;;;1.55;0.77;;;22.00;62.70;;;;;;5055325;28;20049;-57
2022/05/20 05:38:46;;;;;;;2.15;0.80;;;22.10;62.80;;;;;;5054449;28;20541;-56
2022/05/20 05:41:12;;;;;;;1.35;0.70;;;22.10;62.80;;;;;;5055222;28;20045;-56
2022/05/20 05:43:37;;;;;;;1.20;0.60;;;22.10;62.70;;;;;;5055181;28;20049;-56
2022/05/20 05:46:03;;;;;;;1.73;0.93;;;22.10;62.70;;;;;;5054379;28;20033;-56
2022/05/20 05:48:28;;;;;;;1.70;0.80;;;22.10;62.70;;;;;;5055478;28;20527;-56
2022/05/20 05:50:55;;;;;;;1.52;0.73;;;22.10;62.70;;;;;;5053413;28;20464;-57
2022/05/20 05:53:21;;;;;;;0.98;0.77;;;22.10;62.70;;;;;;5054529;28;20057;-56
2022/05/20 05:55:48;;;;;;;2.15;1.02;;;22.10;62.70;;;;;;5054974;28;20040;-58
2022/05/20 05:58:14;;;;;;;7.35;2.85;;;22.10;62.70;;;;;;5054671;28;20049;-58
2022/05/20 06:00:40;;;;;;;8.00;3.10;;;22.10;60.80;;;;;;5054532;28;20132;-58
2022/05/20 06:03:06;;;;;;;6.65;3.13;;;22.00;58.70;;;;;;5053692;28;20162;-58
2022/05/20 06:05:31;;;;;;;7.03;2.92;;;21.90;57.40;;;;;;5054016;28;20052;-57
2022/05/20 06:07:59;;;;;;;5.50;2.85;;;21.80;56.70;;;;;;5054627;28;20120;-57
2022/05/20 06:10:25;;;;;;;9.00;3.00;;;21.70;56.20;;;;;;5054958;28;20049;-57
2022/05/20 06:12:50;;;;;;;9.30;3.30;;;21.60;55.90;;;;;;5053188;28;20048;-56
2022/05/20 06:15:18;;;;;;;4.93;1.95;;;21.60;55.80;;;;;;5054904;28;20076;-56
2022/05/20 06:17:44;;;;;;;6.43;2.00;;;21.60;56.20;;;;;;5054170;28;20128;-57
2022/05/20 06:20:10;;;;;;;6.05;1.40;;;21.60;56.50;;;;;;5053759;28;20128;-56
2022/05/20 06:22:35;;;;;;;9.63;2.45;;;21.70;56.90;;;;;;5054274;28;20523;-57
2022/05/20 06:25:01;;;;;;;7.13;2.05;;;21.70;57.30;;;;;;5054310;28;20041;-56
2022/05/20 06:27:27;;;;;;;4.80;1.60;;;21.70;57.50;;;;;;5053429;28;20048;-57
2022/05/20 06:29:52;;;;;;;6.50;1.80;;;21.80;57.60;;;;;;5054219;28;20051;-57
2022/05/20 06:32:18;;;;;;;4.75;1.50;;;21.80;57.60;;;;;;5054533;28;20041;-57
2022/05/20 06:40:14;;;;;;;5.55;1.50;;;21.90;57.80;;;;;;5054401;28;20045;-56
2022/05/20 06:42:40;;;;;;;7.57;1.73;;;21.90;57.90;;;;;;5053206;28;20049;-56
2022/05/20 06:45:06;;;;;;;7.88;1.63;;;21.90;58.10;;;;;;5054050;28;20072;-56
2022/05/20 06:47:32;;;;;;;4.97;1.80;;;22.00;58.30;;;;;;5053168;28;20485;-56
2022/05/20 06:49:57;;;;;;;3.67;1.17;;;22.00;58.40;;;;;;5053678;28;20058;-56
2022/05/20 06:52:23;;;;;;;5.07;1.25;;;21.90;58.50;;;;;;5054093;28;20072;-56
2022/05/20 06:54:48;;;;;;;7.95;1.38;;;22.00;58.70;;;;;;5053159;28;20048;-56
2022/05/20 06:57:20;;;;;;;3.83;1.13;;;22.00;58.80;;;;;;5054022;28;20052;-56
2022/05/20 06:59:45;;;;;;;7.70;1.30;;;22.10;58.90;;;;;;5053477;28;20132;-55
2022/05/20 07:02:11;;;;;;;4.68;1.35;;;22.10;59.00;;;;;;5053155;28;20128;-56
2022/05/20 07:04:37;;;;;;;3.97;1.08;;;22.10;59.10;;;;;;5052811;28;20116;-56
2022/05/20 07:07:03;;;;;;;4.32;1.27;;;22.10;59.10;;;;;;5045609;28;20183;-56
2022/05/20 07:09:29;;;;;;;5.25;1.30;;;22.10;59.30;;;;;;5047952;28;20063;-55
2022/05/20 07:11:55;;;;;;;4.13;1.15;;;22.10;59.30;;;;;;5053315;28;20049;-57
2022/05/20 07:14:21;;;;;;;4.18;1.30;;;22.10;59.40;;;;;;5053548;28;20103;-56
2022/05/20 07:16:47;;;;;;;5.43;1.10;;;22.10;59.40;;;;;;5052394;28;20455;-56
2022/05/20 07:19:12;;;;;;;2.65;1.13;;;22.10;59.30;;;;;;5053047;28;20041;-56
2022/05/20 07:21:38;;;;;;;3.15;1.20;;;22.10;59.30;;;;;;5053456;28;20041;-56
2022/05/20 07:24:04;;;;;;;3.80;1.50;;;22.10;59.30;;;;;;5052751;28;20041;-56
2022/05/20 07:26:30;;;;;;;3.92;1.17;;;22.10;59.30;;;;;;5053491;28;20215;-57
2022/05/20 07:28:59;;;;;;;3.58;1.52;;;22.10;59.50;;;;;;5053226;28;20037;-56
2022/05/20 07:31:24;;;;;;;3.28;1.30;;;22.10;59.60;;;;;;5051371;28;20110;-56
2022/05/20 07:33:51;;;;;;;6.82;1.75;;;22.10;59.60;;;;;;5052975;28;20051;-56
2022/05/20 07:36:16;;;;;;;5.55;1.92;;;22.10;59.60;;;;;;5053170;28;20140;-56
2022/05/20 07:38:43;;;;;;;4.03;1.85;;;22.10;59.60;;;;;;5052272;28;20119;-58
2022/05/20 07:41:08;;;;;;;8.75;3.40;;;22.10;59.80;;;;;;5053208;28;20049;-60
2022/05/20 07:43:34;;;;;;;10.00;2.72;;;22.10;60.00;;;;;;5053316;28;20041;-57
2022/05/20 07:45:59;;;;;;;9.50;2.50;;;22.20;59.80;;;;;;5052108;28;20474;-57
2022/05/20 07:48:25;;;;;;;8.55;2.10;;;22.20;59.90;;;;;;5052435;28;20068;-57
2022/05/20 07:50:59;;;;;;;8.93;2.45;;;22.20;59.90;;;;;;5052085;28;20052;-57
2022/05/20 07:53:36;;;;;;;8.90;2.67;;;22.20;60.00;;;;;;5068359;28;20052;-57
2022/05/20 07:56:23;;;;;;;9.73;3.03;;;22.20;60.00;;;;;;5067007;28;20068;-57
2022/05/20 07:58:51;;;;;;;12.15;3.10;;;22.20;59.90;;;;;;5051897;28;20554;-57
2022/05/20 08:01:22;;;;;;;7.07;2.53;;;22.20;59.90;;;;;;5067438;28;20056;-57
2022/05/20 08:06:34;;;;;;;11.57;2.53;;;22.20;59.90;;;;;;5064944;28;20473;-56
2022/05/20 08:09:00;;;;;;;10.43;2.95;;;22.20;59.90;;;;;;5052388;28;20049;-57
2022/05/20 08:11:25;;;;;;;7.72;1.95;;;22.20;59.90;;;;;;5052075;28;20447;-57
2022/05/20 08:13:51;;;;;;;11.07;2.20;;;22.20;59.80;;;;;;5051736;28;20106;-57
2022/05/20 08:16:18;;;;;;;6.57;1.83;;;22.20;59.80;;;;;;5052780;28;20036;-57
2022/05/20 08:18:44;;;;;;;7.73;2.20;;;22.20;59.80;;;;;;5052013;28;20102;-57
2022/05/20 08:21:09;;;;;;;8.63;2.10;;;22.20;59.70;;;;;;5051818;28;20049;-57
2022/05/20 08:23:34;;;;;;;7.93;2.25;;;22.20;59.70;;;;;;5056738;28;20044;-56
2022/05/20 08:26:00;;;;;;;6.47;2.30;;;22.20;59.70;;;;;;5070721;28;20194;-57
2022/05/20 08:28:26;;;;;;;9.57;2.00;;;22.20;59.80;;;;;;5072736;28;20036;-57
2022/05/20 08:30:51;;;;;;;6.30;2.00;;;22.30;59.80;;;;;;5072071;28;20037;-57
2022/05/20 08:33:17;;;;;;;8.25;2.30;;;22.30;59.90;;;;;;5071918;28;20151;-57
2022/05/20 08:35:42;;;;;;;5.15;2.10;;;22.30;59.90;;;;;;5072117;28;20151;-57
2022/05/20 08:38:08;;;;;;;7.20;2.20;;;22.30;60.00;;;;;;5071002;28;20044;-57
2022/05/20 08:40:41;;;;;;;7.25;2.20;;;22.30;59.90;;;;;;5071348;28;20043;-57
2022/05/20 08:43:06;;;;;;;5.72;1.77;;;22.30;60.00;;;;;;5071274;28;20048;-57
2022/05/20 08:45:32;;;;;;;8.25;2.00;;;22.30;60.00;;;;;;5072514;28;20043;-57
2022/05/20 08:47:58;;;;;;;5.43;1.70;;;22.40;60.00;;;;;;5071321;28;20046;-57
2022/05/20 08:50:45;;;;;;;6.15;1.90;;;22.40;60.00;;;;;;5072528;28;20033;-56
2022/05/20 08:53:22;;;;;;;6.05;2.17;;;22.40;60.00;;;;;;5071432;28;20056;-57
2022/05/20 08:55:47;;;;;;;5.78;1.80;;;22.40;60.00;;;;;;5070152;28;20044;-57
2022/05/20 08:58:17;;;;;;;7.75;2.05;;;22.40;60.00;;;;;;5072372;28;20127;-57
2022/05/20 09:00:42;;;;;;;8.43;2.10;;;22.40;60.00;;;;;;5070581;28;20438;-57
2022/05/20 09:03:09;;;;;;;6.80;1.98;;;22.40;60.00;;;;;;5070330;28;20040;-57
2022/05/20 09:05:36;;;;;;;6.53;2.00;;;22.40;60.00;;;;;;5072220;28;20044;-57
2022/05/20 09:08:05;;;;;;;6.50;1.90;;;22.40;60.00;;;;;;5071862;28;20055;-57
2022/05/20 09:10:43;;;;;;;8.82;2.10;;;22.40;60.10;;;;;;5071368;28;20054;-56
2022/05/20 09:13:23;;;;;;;8.47;2.00;;;22.40;60.80;;;;;;5063269;28;20045;-57
2022/05/20 09:15:59;;;;;;;6.90;1.95;;;22.40;60.20;;;;;;5048389;28;20045;-56
2022/05/20 09:18:28;;;;;;;6.65;1.90;;;22.40;60.10;;;;;;5047777;28;20583;-57
2022/05/20 09:20:54;;;;;;;4.65;1.65;;;22.40;60.20;;;;;;5051581;28;20088;-57
2022/05/20 09:23:20;;;;;;;14.20;6.75;;;22.40;60.20;;;;;;5050927;28;20064;-57
2022/05/20 09:26:00;;;;;;;7.38;2.30;;;22.50;60.20;;;;;;5051372;28;20051;-57
2022/05/20 09:28:27;;;;;;;8.10;3.42;;;22.50;60.40;;;;;;5051719;28;20051;-57
2022/05/20 09:31:01;;;;;;;9.10;3.88;;;22.50;60.20;;;;;;5050808;28;20045;-57
2022/05/20 09:33:28;;;;;;;9.45;4.50;;;22.50;60.20;;;;;;5051762;28;20045;-56
2022/05/20 09:35:58;;;;;;;7.25;2.53;;;22.50;60.20;;;;;;5033769;28;20033;-56
2022/05/20 09:38:30;;;;;;;7.90;2.83;;;22.50;60.00;;;;;;5053460;28;20060;-57
2022/05/20 09:40:55;;;;;;;9.35;2.30;;;22.50;60.00;;;;;;5055054;28;20055;-57
2022/05/20 09:43:28;;;;;;;7.07;2.45;;;22.50;59.80;;;;;;5054652;28;20127;-57
2022/05/20 09:45:54;;;;;;;11.18;4.50;;;22.50;59.90;;;;;;5054727;28;20399;-57
2022/05/20 09:48:23;;;;;;;25.38;10.55;;;22.50;59.90;;;;;;5055139;28;20095;-57
2022/05/20 09:51:06;;;;;;;19.05;8.00;;;22.50;60.20;;;;;;5054363;28;20041;-57
2022/05/20 09:53:39;;;;;;;8.20;3.50;;;22.60;60.30;;;;;;5055144;28;20076;-56
2022/05/20 09:56:26;;;;;;;10.15;3.90;;;22.60;60.10;;;;;;5054469;28;20037;-56
2022/05/20 09:59:24;;;;;;;18.80;3.72;;;22.60;60.20;;;;;;5053434;28;20479;-56
2022/05/20 10:02:44;;;;;;;10.15;3.20;;;22.60;60.40;;;;;;5043736;28;20095;-56
2022/05/20 10:05:42;;;;;;;13.02;3.33;;;22.60;60.50;;;;;;5036058;28;20097;-56
2022/05/20 10:08:16;;;;;;;10.57;2.63;;;22.60;60.70;;;;;;5060900;28;20064;-57
2022/05/20 10:10:50;;;;;;;10.35;3.22;;;22.60;61.20;;;;;;5054157;28;20052;-57
2022/05/20 10:13:29;;;;;;;4.90;2.47;;;22.60;60.70;;;;;;5053748;28;20072;-59
2022/05/20 10:16:21;;;;;;;7.28;2.70;;;22.60;60.70;;;;;;5017528;28;20041;-64
2022/05/20 10:19:02;;;;;;;12.48;2.53;;;22.60;60.60;;;;;;5048949;28;20051;-56
2022/05/20 10:21:48;;;;;;;8.60;2.83;;;22.60;60.80;;;;;;5051525;28;20045;-56
2022/05/20 10:24:47;;;;;;;6.10;2.30;;;22.60;60.90;;;;;;5058048;28;20127;-56
2022/05/20 10:27:52;;;;;;;9.27;2.85;;;22.60;60.80;;;;;;5059089;28;20059;-56
2022/05/20 10:33:04;;;;;;;8.07;2.20;;;22.60;60.70;;;;;;5053331;28;20069;-56
2022/05/20 10:35:57;;;;;;;7.38;2.40;;;22.60;60.60;;;;;;5055015;28;20515;-56
2022/05/20 10:38:34;;;;;;;5.57;2.03;;;22.70;60.70;;;;;;5054209;28;20120;-56
2022/05/20 10:41:19;;;;;;;9.65;2.10;;;22.60;60.60;;;;;;5052942;28;20041;-56
2022/05/20 10:50:08;;;;;;;7.75;2.80;;;22.70;61.10;;;;;;5053443;28;20049;-56
2022/05/20 10:52:58;;;;;;;7.80;2.17;;;22.70;61.20;;;;;;5052751;28;20112;-56
2022/05/20 10:55:36;;;;;;;3.95;1.75;;;22.70;61.20;;;;;;5052165;28;20119;-56
2022/05/20 10:58:30;;;;;;;11.90;2.30;;;22.60;61.10;;;;;;5051985;28;20037;-57
2022/05/20 11:00:55;;;;;;;10.27;2.78;;;22.70;61.00;;;;;;5053712;28;20044;-56
2022/05/20 11:03:43;;;;;;;5.07;2.00;;;22.60;60.90;;;;;;5057694;28;20045;-57
2022/05/20 11:06:25;;;;;;;6.50;2.08;;;22.70;61.00;;;;;;5069026;28;20087;-57
2022/05/20 11:09:07;;;;;;;5.63;1.60;;;22.70;61.10;;;;;;5048221;28;20041;-56
2022/05/20 11:11:56;;;;;;;7.10;1.90;;;22.70;61.00;;;;;;5052845;28;20499;-57
2022/05/20 11:14:28;;;;;;;9.82;2.17;;;22.70;60.90;;;;;;5056011;28;20048;-57
2022/05/20 11:17:21;;;;;;;7.43;1.90;;;22.70;61.00;;;;;;5052480;28;20064;-56
2022/05/20 11:20:01;;;;;;;6.70;2.05;;;22.70;61.00;;;;;;5053388;28;20049;-56
2022/05/20 11:22:52;;;;;;;7.05;2.17;;;22.70;61.00;;;;;;5051274;28;20033;-56
2022/05/20 11:25:43;;;;;;;6.50;1.75;;;22.70;61.00;;;;;;5068938;28;20131;-57
2022/05/20 11:28:30;;;;;;;7.70;1.77;;;22.70;61.00;;;;;;5053570;28;20053;-56
2022/05/20 11:31:17;;;;;;;5.90;1.80;;;22.70;61.00;;;;;;5067630;28;20073;-56
2022/05/20 11:34:06;;;;;;;5.90;2.42;;;22.70;61.00;;;;;;5053075;28;20062;-56
2022/05/20 11:36:34;;;;;;;4.85;1.83;;;22.70;60.90;;;;;;5067626;28;20520;-57
2022/05/20 11:39:33;;;;;;;5.25;2.05;;;22.70;61.00;;;;;;5053078;28;20041;-57
2022/05/20 11:42:11;;;;;;;5.53;1.70;;;22.70;61.00;;;;;;5062907;28;20111;-56
2022/05/20 11:44:49;;;;;;;8.00;1.80;;;22.70;61.00;;;;;;5052673;28;20059;-57
2022/05/20 11:47:34;;;;;;;6.70;1.73;;;22.70;61.00;;;;;;5052582;28;20059;-57
2022/05/20 11:50:18;;;;;;;3.33;1.83;;;22.80;61.10;;;;;;5065661;28;20080;-57
2022/05/20 11:53:13;;;;;;;4.68;2.03;;;22.80;61.10;;;;;;5052624;28;20048;-57
2022/05/20 11:55:51;;;;;;;4.28;1.70;;;22.80;61.00;;;;;;5067817;28;20043;-57
2022/05/20 11:58:31;;;;;;;5.28;1.67;;;22.80;61.10;;;;;;5051156;28;20131;-57
2022/05/20 12:00:57;;;;;;;5.45;2.08;;;22.80;61.00;;;;;;5052822;28;20045;-58
2022/05/20 12:03:26;;;;;;;3.35;1.73;;;22.80;61.00;;;;;;5068257;28;20472;-57
2022/05/20 12:05:52;;;;;;;4.60;2.13;;;22.80;61.10;;;;;;5067327;28;20399;-57
2022/05/20 12:08:44;;;;;;;5.18;1.67;;;22.80;61.00;;;;;;5068424;28;20128;-57
2022/05/20 12:11:35;;;;;;;4.18;1.73;;;22.80;61.00;;;;;;5051946;28;20041;-57
2022/05/20 12:14:08;;;;;;;4.43;1.92;;;22.80;61.00;;;;;;5052752;28;20048;-57
2022/05/20 12:16:55;;;;;;;4.95;1.90;;;22.80;61.00;;;;;;5053030;28;20052;-57
2022/05/20 12:24:52;;;;;;;6.22;1.80;;;22.80;60.90;;;;;;5069650;28;20044;-57
2022/05/20 12:27:23;;;;;;;6.15;2.05;;;22.80;60.90;;;;;;5071999;28;20053;-57
2022/05/20 12:29:59;;;;;;;5.30;2.10;;;22.80;60.90;;;;;;5072434;28;20036;-57
2022/05/20 12:32:35;;;;;;;5.47;2.03;;;22.80;60.90;;;;;;5071929;28;20074;-58
2022/05/20 12:35:24;;;;;;;4.65;2.00;;;22.80;60.80;;;;;;5072534;28;20037;-57
2022/05/20 12:37:50;;;;;;;7.03;1.98;;;22.80;60.80;;;;;;5070779;28;20064;-56
2022/05/20 12:40:26;;;;;;;4.88;2.20;;;22.80;60.80;;;;;;5071880;28;20134;-60
2022/05/20 12:43:00;;;;;;;4.63;2.15;;;22.80;60.80;;;;;;5059150;28;20040;-56
2022/05/20 12:45:26;;;;;;;5.05;1.92;;;22.80;60.80;;;;;;5051025;28;20416;-57
2022/05/20 12:47:53;;;;;;;4.15;2.20;;;22.80;60.80;;;;;;5051615;28;20033;-57
2022/05/20 12:50:25;;;;;;;5.60;2.30;;;22.80;60.80;;;;;;5067602;28;20041;-57
2022/05/20 12:52:58;;;;;;;5.00;2.00;;;22.80;60.80;;;;;;5051672;28;20471;-56
2022/05/20 12:55:24;;;;;;;4.03;2.40;;;22.80;60.90;;;;;;5051640;28;20049;-57
2022/05/20 12:57:58;;;;;;;4.43;1.80;;;22.80;60.80;;;;;;5052148;28;20044;-57
2022/05/20 13:00:32;;;;;;;4.63;2.25;;;22.80;60.80;;;;;;5051595;28;20048;-57
2022/05/20 13:03:30;;;;;;;10.38;2.72;;;22.80;60.80;;;;;;5052001;28;20053;-57
2022/05/20 13:06:09;;;;;;;4.50;2.20;;;22.80;60.90;;;;;;5050997;28;20045;-57
2022/05/20 13:08:56;;;;;;;4.82;2.15;;;22.80;60.90;;;;;;5066289;28;20044;-57
2022/05/20 13:11:23;;;;;;;3.63;1.90;;;22.80;60.90;;;;;;5052943;28;20049;-56
2022/05/20 13:13:58;;;;;;;3.42;2.20;;;22.80;60.90;;;;;;5056078;28;20542;-57
2022/05/20 13:16:24;;;;;;;6.53;2.08;;;22.80;61.00;;;;;;5055639;28;20045;-57
2022/05/20 13:19:04;;;;;;;4.47;2.38;;;22.70;61.00;;;;;;5055617;28;20140;-57
2022/05/20 13:21:57;;;;;;;3.80;2.22;;;22.70;61.00;;;;;;5055041;28;20044;-56
2022/05/20 13:24:27;;;;;;;3.83;2.03;;;22.70;61.10;;;;;;5066636;28;20082;-56
2022/05/20 13:27:07;;;;;;;6.10;2.40;;;22.70;61.10;;;;;;5055701;28;20052;-56
2022/05/20 13:29:33;;;;;;;3.50;2.25;;;22.70;61.10;;;;;;5054811;28;20389;-57
2022/05/20 13:32:19;;;;;;;3.20;2.40;;;22.70;61.20;;;;;;5055663;28;20492;-57
2022/05/20 13:34:47;;;;;;;4.25;2.33;;;22.70;61.30;;;;;;5055642;28;20037;-57
2022/05/20 13:37:14;;;;;;;5.55;2.72;;;22.60;61.20;;;;;;5055018;28;20053;-56